Time;durP1;ratioP1;P1;durP2;ratioP2;P2;SDS_P1;SDS_P2;PMS_P1;PMS_P2;Temp;Humidity;BMP_temperature;BMP_pressure;BME280_temperature;BME280_humidity;BME280_pressure;Samples;Min_cycle;Max_cycle;Signal;HPM_P1;HPM_P2
2022/07/30 00:02:00;;;;;;;11.82;10.73;;;;;;;;;;5092235;28;20058;-80
2022/07/30 00:04:27;;;;;;;12.43;10.82;;;;;;;;;;5092143;28;20042;-80
2022/07/30 00:06:53;;;;;;;11.00;10.10;;;;;;;;;;5092286;28;20020;-79
2022/07/30 00:09:19;;;;;;;12.48;11.40;;;;;;;;;;5074137;28;20024;-80
2022/07/30 00:11:45;;;;;;;12.32;11.23;;;;;;;;;;5092038;28;20030;-80
2022/07/30 00:14:11;;;;;;;12.20;11.20;;;;;;;;;;5092121;28;20512;-80
2022/07/30 00:16:37;;;;;;;12.60;11.50;;;;;;;;;;5091783;28;20023;-79
2022/07/30 00:19:03;;;;;;;13.32;12.32;;;;;;;;;;5092172;28;20386;-79
2022/07/30 00:21:30;;;;;;;13.98;12.88;;;;;;;;;;5093714;28;20024;-79
2022/07/30 00:23:56;;;;;;;13.55;12.45;;;;;;;;;;5077600;28;20032;-79
2022/07/30 00:26:22;;;;;;;13.23;12.10;;;;;;;;;;5095884;28;20030;-79
2022/07/30 00:28:48;;;;;;;13.25;11.95;;;;;;;;;;5095508;28;20153;-79
2022/07/30 00:31:14;;;;;;;11.93;10.82;;;;;;;;;;5095275;28;20012;-79
2022/07/30 00:33:40;;;;;;;11.43;10.43;;;;;;;;;;5095351;28;20024;-79
2022/07/30 00:36:06;;;;;;;11.40;10.40;;;;;;;;;;5095602;28;20056;-79
2022/07/30 00:38:32;;;;;;;11.18;10.07;;;;;;;;;;5095675;28;20020;-79
2022/07/30 00:40:59;;;;;;;11.43;10.32;;;;;;;;;;5095553;28;20099;-79
2022/07/30 00:43:25;;;;;;;11.10;10.02;;;;;;;;;;5095537;28;20103;-79
2022/07/30 00:45:51;;;;;;;11.45;10.43;;;;;;;;;;5095456;28;20493;-79
2022/07/30 00:48:17;;;;;;;12.05;10.93;;;;;;;;;;5095522;28;20020;-80
2022/07/30 00:50:43;;;;;;;11.90;10.82;;;;;;;;;;5095132;28;20045;-80
2022/07/30 00:53:09;;;;;;;11.52;10.52;;;;;;;;;;5095411;28;20448;-79
2022/07/30 00:55:35;;;;;;;11.15;10.25;;;;;;;;;;5095412;28;20082;-80
2022/07/30 00:58:01;;;;;;;11.65;10.77;;;;;;;;;;5095223;28;20031;-80
2022/07/30 01:00:28;;;;;;;11.85;10.75;;;;;;;;;;5095264;28;20032;-80
2022/07/30 01:02:54;;;;;;;12.18;11.00;;;;;;;;;;5094939;28;20033;-79
2022/07/30 01:05:20;;;;;;;12.23;11.05;;;;;;;;;;5095263;28;20024;-80
2022/07/30 01:07:46;;;;;;;11.80;10.85;;;;;;;;;;5095039;28;20024;-79
2022/07/30 01:10:13;;;;;;;11.88;10.85;;;;;;;;;;5094897;28;20082;-80
2022/07/30 01:12:40;;;;;;;12.27;11.20;;;;;;;;;;5095134;28;20024;-79
2022/07/30 01:15:07;;;;;;;13.52;12.43;;;;;;;;;;5094831;28;20024;-80
2022/07/30 01:17:34;;;;;;;12.07;11.07;;;;;;;;;;5095040;28;20475;-80
2022/07/30 01:20:09;;;;;;;11.77;10.77;;;;;;;;;;5094795;28;20120;-80
2022/07/30 01:22:42;;;;;;;12.57;11.38;;;;;;;;;;5094828;28;20035;-79
2022/07/30 01:25:14;;;;;;;12.38;11.27;;;;;;;;;;5094831;28;20020;-80
2022/07/30 01:28:00;;;;;;;13.00;11.90;;;;;;;;;;5094562;28;20016;-80
2022/07/30 01:30:28;;;;;;;12.60;11.60;;;;;;;;;;5094078;28;20024;-80
2022/07/30 01:32:55;;;;;;;12.88;11.77;;;;;;;;;;5075987;28;20043;-80
2022/07/30 01:35:23;;;;;;;12.88;11.77;;;;;;;;;;5094214;28;20052;-80
2022/07/30 01:37:51;;;;;;;14.45;12.98;;;;;;;;;;5094555;28;20489;-79
2022/07/30 01:40:18;;;;;;;13.30;12.18;;;;;;;;;;5094354;28;20027;-80
2022/07/30 01:42:44;;;;;;;13.73;12.55;;;;;;;;;;5094522;28;20031;-80
2022/07/30 01:45:12;;;;;;;12.70;11.60;;;;;;;;;;5094530;28;20020;-80
2022/07/30 01:47:40;;;;;;;13.10;11.90;;;;;;;;;;5094303;28;20044;-80
2022/07/30 01:50:09;;;;;;;12.48;11.30;;;;;;;;;;5093963;28;20020;-79
2022/07/30 01:52:36;;;;;;;13.15;12.05;;;;;;;;;;5094308;28;20054;-80
2022/07/30 01:55:03;;;;;;;13.60;12.48;;;;;;;;;;5094225;28;20028;-80
2022/07/30 01:57:30;;;;;;;12.85;11.75;;;;;;;;;;5075842;28;20151;-80
2022/07/30 01:59:58;;;;;;;14.95;13.65;;;;;;;;;;5094105;28;20047;-81
2022/07/30 02:02:24;;;;;;;12.73;11.63;;;;;;;;;;5093754;28;20073;-80
2022/07/30 02:04:51;;;;;;;12.63;11.52;;;;;;;;;;5094125;28;20101;-80
2022/07/30 02:07:23;;;;;;;12.85;11.57;;;;;;;;;;5093836;28;20024;-80
2022/07/30 02:10:03;;;;;;;11.73;10.75;;;;;;;;;;5093632;28;20027;-80
2022/07/30 02:12:30;;;;;;;12.45;11.35;;;;;;;;;;5094072;28;20095;-80
2022/07/30 02:15:16;;;;;;;12.07;11.05;;;;;;;;;;5093688;28;20471;-80
2022/07/30 02:17:47;;;;;;;12.43;11.32;;;;;;;;;;5076932;28;20479;-80
2022/07/30 02:20:14;;;;;;;12.00;10.93;;;;;;;;;;5093800;28;20024;-80
2022/07/30 02:22:42;;;;;;;12.20;11.00;;;;;;;;;;5093614;28;20020;-80
2022/07/30 02:25:09;;;;;;;12.98;11.77;;;;;;;;;;5093644;28;20024;-80
2022/07/30 02:27:38;;;;;;;12.77;11.57;;;;;;;;;;5093324;28;20028;-80
2022/07/30 02:30:05;;;;;;;12.57;11.48;;;;;;;;;;5075397;28;20111;-80
2022/07/30 02:32:35;;;;;;;12.50;11.38;;;;;;;;;;5093703;28;20026;-80
2022/07/30 02:35:04;;;;;;;12.68;11.38;;;;;;;;;;5093232;28;20028;-80
2022/07/30 02:37:31;;;;;;;14.00;12.80;;;;;;;;;;5093520;28;20398;-80
2022/07/30 02:39:57;;;;;;;13.82;12.63;;;;;;;;;;5093238;28;20020;-79
2022/07/30 02:42:25;;;;;;;12.55;11.35;;;;;;;;;;5093350;28;20028;-80
2022/07/30 02:44:52;;;;;;;13.02;11.98;;;;;;;;;;5092348;28;20016;-78
2022/07/30 02:47:21;;;;;;;12.57;11.48;;;;;;;;;;5074879;28;20023;-79
2022/07/30 02:49:49;;;;;;;12.68;11.68;;;;;;;;;;5093064;28;20051;-80
2022/07/30 02:52:16;;;;;;;12.73;11.63;;;;;;;;;;5092988;28;20028;-80
2022/07/30 02:54:42;;;;;;;12.45;11.45;;;;;;;;;;5092953;28;20043;-80
2022/07/30 02:57:09;;;;;;;12.85;11.70;;;;;;;;;;5093179;28;20030;-80
2022/07/30 02:59:37;;;;;;;12.75;11.65;;;;;;;;;;5093011;28;20119;-80
2022/07/30 03:02:04;;;;;;;11.55;10.48;;;;;;;;;;5092885;28;20016;-80
2022/07/30 03:04:31;;;;;;;12.68;11.68;;;;;;;;;;5074660;28;20051;-80
2022/07/30 03:06:58;;;;;;;12.80;11.60;;;;;;;;;;5092786;28;20077;-80
2022/07/30 03:09:25;;;;;;;13.48;12.23;;;;;;;;;;5092898;28;20482;-80
2022/07/30 03:11:52;;;;;;;13.00;11.70;;;;;;;;;;5092574;28;20099;-79
2022/07/30 03:14:18;;;;;;;13.30;11.98;;;;;;;;;;5092820;28;20028;-80
2022/07/30 03:16:47;;;;;;;13.05;11.95;;;;;;;;;;5092555;28;20028;-80
2022/07/30 03:19:15;;;;;;;13.10;11.95;;;;;;;;;;5092775;28;20436;-80
2022/07/30 03:21:42;;;;;;;12.88;11.85;;;;;;;;;;5092173;28;20431;-80
2022/07/30 03:24:10;;;;;;;12.60;11.50;;;;;;;;;;5092610;28;20111;-80
2022/07/30 03:26:36;;;;;;;13.27;12.13;;;;;;;;;;5092581;28;20035;-79
2022/07/30 03:29:02;;;;;;;13.25;12.05;;;;;;;;;;5092582;28;20028;-79
2022/07/30 03:31:29;;;;;;;13.80;12.50;;;;;;;;;;5092220;28;20073;-80
2022/07/30 03:33:56;;;;;;;14.25;13.15;;;;;;;;;;5092202;28;20031;-80
2022/07/30 03:36:22;;;;;;;13.93;12.68;;;;;;;;;;5074305;28;20507;-79
2022/07/30 03:38:48;;;;;;;13.55;12.35;;;;;;;;;;5092361;28;20032;-80
2022/07/30 03:41:15;;;;;;;14.10;12.90;;;;;;;;;;5091998;28;20024;-80
2022/07/30 03:43:41;;;;;;;14.20;12.73;;;;;;;;;;5092253;28;20471;-80
2022/07/30 03:46:09;;;;;;;12.98;11.88;;;;;;;;;;5092397;28;20028;-80
2022/07/30 03:48:36;;;;;;;13.40;12.13;;;;;;;;;;5092348;28;20016;-80
2022/07/30 03:51:03;;;;;;;17.33;15.82;;;;;;;;;;5092312;28;20037;-80
2022/07/30 03:53:29;;;;;;;22.80;20.80;;;;;;;;;;5091959;28;20048;-80
2022/07/30 03:55:56;;;;;;;21.17;18.85;;;;;;;;;;5094385;28;20115;-80
2022/07/30 03:58:22;;;;;;;17.70;16.05;;;;;;;;;;5096298;28;20031;-80
2022/07/30 04:00:49;;;;;;;13.48;12.18;;;;;;;;;;5095887;28;20028;-80
2022/07/30 04:03:34;;;;;;;15.15;12.80;;;;;;;;;;5096155;28;20487;-80
2022/07/30 04:06:00;;;;;;;13.40;12.25;;;;;;;;;;5096265;28;20024;-81
2022/07/30 04:08:27;;;;;;;14.52;12.68;;;;;;;;;;5096368;28;20533;-80
2022/07/30 04:10:53;;;;;;;14.65;13.10;;;;;;;;;;5096172;28;20442;-80
2022/07/30 04:13:19;;;;;;;15.93;14.43;;;;;;;;;;5096251;28;20034;-80
2022/07/30 04:16:02;;;;;;;15.07;13.57;;;;;;;;;;5095887;28;20031;-80
2022/07/30 04:18:31;;;;;;;14.50;13.13;;;;;;;;;;5095938;28;20031;-80
2022/07/30 04:20:58;;;;;;;14.50;13.18;;;;;;;;;;5096138;28;20024;-80
2022/07/30 04:23:24;;;;;;;16.23;14.82;;;;;;;;;;5095753;28;20024;-80
2022/07/30 04:25:50;;;;;;;14.35;13.13;;;;;;;;;;5096111;28;20016;-80
2022/07/30 04:28:17;;;;;;;21.50;19.40;;;;;;;;;;5095214;28;20012;-80
2022/07/30 04:30:43;;;;;;;18.17;16.35;;;;;;;;;;5095931;28;20531;-80
2022/07/30 04:33:09;;;;;;;16.40;14.90;;;;;;;;;;5095831;28;20027;-79
2022/07/30 04:35:35;;;;;;;14.77;13.50;;;;;;;;;;5095565;28;20482;-80
2022/07/30 04:38:03;;;;;;;13.48;12.27;;;;;;;;;;5095919;28;20543;-80
2022/07/30 04:40:30;;;;;;;13.48;12.18;;;;;;;;;;5095514;28;20027;-80
2022/07/30 04:42:56;;;;;;;15.43;13.95;;;;;;;;;;5095735;28;20912;-80
2022/07/30 04:45:22;;;;;;;13.60;12.30;;;;;;;;;;5095385;28;20024;-80
2022/07/30 04:47:52;;;;;;;13.70;12.50;;;;;;;;;;5095649;28;20035;-79
2022/07/30 04:50:20;;;;;;;14.15;12.70;;;;;;;;;;5095409;28;20027;-79
2022/07/30 04:52:47;;;;;;;14.25;12.95;;;;;;;;;;5095542;28;20093;-80
2022/07/30 04:55:14;;;;;;;13.60;12.20;;;;;;;;;;5095285;28;20391;-80
2022/07/30 04:57:41;;;;;;;22.88;20.92;;;;;;;;;;5095272;28;20028;-80
2022/07/30 05:00:08;;;;;;;17.95;16.40;;;;;;;;;;5095169;28;20024;-80
2022/07/30 05:02:37;;;;;;;18.02;16.40;;;;;;;;;;5095082;28;20352;-81
2022/07/30 05:05:04;;;;;;;19.17;17.35;;;;;;;;;;5095389;28;20031;-80
2022/07/30 05:07:31;;;;;;;26.40;24.10;;;;;;;;;;5094100;28;20020;-81
2022/07/30 05:09:57;;;;;;;16.65;15.25;;;;;;;;;;5095068;28;20095;-80
2022/07/30 05:12:32;;;;;;;14.18;13.07;;;;;;;;;;5094772;28;20490;-81
2022/07/30 05:14:58;;;;;;;14.40;13.00;;;;;;;;;;5076996;28;20028;-80
2022/07/30 05:17:24;;;;;;;13.55;12.15;;;;;;;;;;5094820;28;20026;-80
2022/07/30 05:19:50;;;;;;;16.58;15.18;;;;;;;;;;5094991;28;20120;-79
2022/07/30 05:22:16;;;;;;;14.30;13.07;;;;;;;;;;5094483;28;20027;-79
2022/07/30 05:24:42;;;;;;;49.15;44.67;;;;;;;;;;5094909;28;20367;-80
2022/07/30 05:27:09;;;;;;;29.25;26.63;;;;;;;;;;5094778;28;20074;-79
2022/07/30 05:29:35;;;;;;;25.42;23.00;;;;;;;;;;5094515;28;20375;-81
2022/07/30 05:32:01;;;;;;;17.27;15.77;;;;;;;;;;5094625;28;20020;-81
2022/07/30 05:34:27;;;;;;;28.33;25.92;;;;;;;;;;5094527;28;20520;-81
2022/07/30 05:36:53;;;;;;;24.27;21.90;;;;;;;;;;5076480;28;20056;-81
2022/07/30 05:39:19;;;;;;;20.85;19.02;;;;;;;;;;5094357;28;20016;-81
2022/07/30 05:41:45;;;;;;;17.63;15.75;;;;;;;;;;5094464;28;20482;-81
2022/07/30 05:44:11;;;;;;;13.35;12.05;;;;;;;;;;5094517;28;20059;-82
2022/07/30 05:46:37;;;;;;;15.40;14.00;;;;;;;;;;5094266;28;20077;-82
2022/07/30 05:49:05;;;;;;;14.25;13.15;;;;;;;;;;5094399;28;20080;-82
2022/07/30 05:51:31;;;;;;;13.75;12.65;;;;;;;;;;5094204;28;20467;-81
2022/07/30 05:53:57;;;;;;;14.25;13.05;;;;;;;;;;5094295;28;20035;-82
2022/07/30 05:56:23;;;;;;;13.75;12.65;;;;;;;;;;5093991;28;20055;-81
2022/07/30 05:58:49;;;;;;;14.63;13.32;;;;;;;;;;5094114;28;20052;-82
2022/07/30 06:01:15;;;;;;;13.20;11.90;;;;;;;;;;5094089;28;20027;-81
2022/07/30 06:03:41;;;;;;;13.77;12.55;;;;;;;;;;5093514;28;20448;-82
2022/07/30 06:06:08;;;;;;;14.88;13.60;;;;;;;;;;5075241;28;20073;-82
2022/07/30 06:08:34;;;;;;;13.63;12.27;;;;;;;;;;5093383;28;20432;-81
2022/07/30 06:11:00;;;;;;;14.05;12.85;;;;;;;;;;5093379;28;20098;-80
2022/07/30 06:13:26;;;;;;;12.70;11.60;;;;;;;;;;5093160;28;20368;-81
2022/07/30 06:15:53;;;;;;;12.02;11.07;;;;;;;;;;5093418;28;20099;-81
2022/07/30 06:18:19;;;;;;;12.38;11.18;;;;;;;;;;5093128;28;20029;-80
2022/07/30 06:20:46;;;;;;;13.32;12.13;;;;;;;;;;5093223;28;20429;-80
2022/07/30 06:23:12;;;;;;;12.48;11.20;;;;;;;;;;5093568;28;20034;-80
2022/07/30 06:25:38;;;;;;;13.13;12.05;;;;;;;;;;5075409;28;20044;-82
2022/07/30 06:28:04;;;;;;;13.02;10.68;;;;;;;;;;5093694;28;20494;-81
2022/07/30 06:30:30;;;;;;;31.67;28.67;;;;;;;;;;5093512;28;20027;-81
2022/07/30 06:32:56;;;;;;;13.98;12.80;;;;;;;;;;5093526;28;20387;-79
2022/07/30 06:35:22;;;;;;;13.30;12.00;;;;;;;;;;5093309;28;20123;-82
2022/07/30 06:37:49;;;;;;;15.82;14.48;;;;;;;;;;5075109;28;20104;-80
2022/07/30 06:40:15;;;;;;;15.88;14.38;;;;;;;;;;5075984;28;20024;-81
2022/07/30 06:42:41;;;;;;;17.55;16.05;;;;;;;;;;5074518;28;20398;-80
2022/07/30 06:45:07;;;;;;;25.15;22.90;;;;;;;;;;5093449;28;20047;-81
2022/07/30 06:47:34;;;;;;;12.77;11.57;;;;;;;;;;5093301;28;20025;-82
2022/07/30 06:50:01;;;;;;;11.35;10.35;;;;;;;;;;5093111;28;20016;-82
2022/07/30 06:52:27;;;;;;;10.02;9.23;;;;;;;;;;5093144;28;20023;-81
2022/07/30 06:54:54;;;;;;;11.63;10.65;;;;;;;;;;5093019;28;20028;-82
2022/07/30 06:57:20;;;;;;;10.45;9.43;;;;;;;;;;5074879;28;20024;-81
2022/07/30 06:59:46;;;;;;;9.27;8.45;;;;;;;;;;5074923;28;20024;-81
2022/07/30 07:02:12;;;;;;;11.93;10.82;;;;;;;;;;5092849;28;20024;-82
2022/07/30 07:04:38;;;;;;;9.43;8.63;;;;;;;;;;5092908;28;20020;-81
2022/07/30 07:07:04;;;;;;;9.32;8.43;;;;;;;;;;5092765;28;20024;-82
2022/07/30 07:09:30;;;;;;;10.00;9.18;;;;;;;;;;5074770;28;20435;-81
2022/07/30 07:11:56;;;;;;;8.85;8.13;;;;;;;;;;5092712;28;20055;-81
2022/07/30 07:14:22;;;;;;;9.60;8.32;;;;;;;;;;5092831;28;20078;-81
2022/07/30 07:16:48;;;;;;;9.43;8.43;;;;;;;;;;5092774;28;20100;-82
2022/07/30 07:19:15;;;;;;;8.77;8.15;;;;;;;;;;5092602;28;20024;-81
2022/07/30 07:21:41;;;;;;;9.38;8.48;;;;;;;;;;5074667;28;20028;-82
2022/07/30 07:24:07;;;;;;;10.13;9.20;;;;;;;;;;5092486;28;20019;-83
2022/07/30 07:26:33;;;;;;;8.88;8.07;;;;;;;;;;5074628;28;20073;-82
2022/07/30 07:29:00;;;;;;;11.68;10.68;;;;;;;;;;5092477;28;20039;-81
2022/07/30 07:31:26;;;;;;;13.70;12.23;;;;;;;;;;5092173;28;20111;-82
2022/07/30 07:33:56;;;;;;;9.10;8.20;;;;;;;;;;5092489;28;20055;-83
2022/07/30 07:36:22;;;;;;;9.82;8.90;;;;;;;;;;5092520;28;20487;-82
2022/07/30 07:38:48;;;;;;;10.13;9.07;;;;;;;;;;5092627;28;20028;-81
2022/07/30 07:41:14;;;;;;;9.02;8.15;;;;;;;;;;5092353;28;20020;-82
2022/07/30 07:43:40;;;;;;;8.65;7.85;;;;;;;;;;5092480;28;20025;-81
2022/07/30 07:46:06;;;;;;;11.65;10.55;;;;;;;;;;5092365;28;20103;-82
2022/07/30 07:48:33;;;;;;;9.95;9.10;;;;;;;;;;5092538;28;20490;-81
2022/07/30 07:50:59;;;;;;;11.40;10.32;;;;;;;;;;5092435;28;20020;-81
2022/07/30 07:53:25;;;;;;;9.88;8.98;;;;;;;;;;5092351;28;20024;-82
2022/07/30 07:55:51;;;;;;;10.82;8.75;;;;;;;;;;5092435;28;20028;-82
2022/07/30 07:58:17;;;;;;;11.38;8.52;;;;;;;;;;5092203;28;20024;-82
2022/07/30 08:00:44;;;;;;;18.05;16.35;;;;;;;;;;5092232;28;20423;-82
2022/07/30 08:03:10;;;;;;;14.68;13.18;;;;;;;;;;5092057;28;20035;-82
2022/07/30 08:05:36;;;;;;;11.35;10.23;;;;;;;;;;5092407;28;20064;-82
2022/07/30 08:08:02;;;;;;;9.20;8.27;;;;;;;;;;5092311;28;20095;-82
2022/07/30 08:10:28;;;;;;;8.73;7.93;;;;;;;;;;5092196;28;20016;-81
2022/07/30 08:12:54;;;;;;;9.18;8.38;;;;;;;;;;5074253;28;20390;-81
2022/07/30 08:15:20;;;;;;;9.55;7.88;;;;;;;;;;5092076;28;20513;-82
2022/07/30 08:17:46;;;;;;;8.10;7.40;;;;;;;;;;5092278;28;20028;-83
2022/07/30 08:20:14;;;;;;;8.45;7.65;;;;;;;;;;5092039;28;20021;-84
2022/07/30 08:22:40;;;;;;;9.05;8.25;;;;;;;;;;5092126;28;20028;-83
2022/07/30 08:25:06;;;;;;;9.32;8.50;;;;;;;;;;5092087;28;20024;-82
2022/07/30 08:27:33;;;;;;;9.65;8.95;;;;;;;;;;5092004;28;20021;-81
2022/07/30 08:30:02;;;;;;;9.70;8.73;;;;;;;;;;5092032;28;20025;-83
2022/07/30 08:32:29;;;;;;;10.80;9.65;;;;;;;;;;5091978;28;20077;-82
2022/07/30 08:34:55;;;;;;;9.93;9.15;;;;;;;;;;5091903;28;20382;-83
2022/07/30 08:37:21;;;;;;;9.68;8.82;;;;;;;;;;5091892;28;20471;-83
2022/07/30 08:39:47;;;;;;;9.85;8.95;;;;;;;;;;5092235;28;20016;-83
2022/07/30 08:42:13;;;;;;;9.18;8.38;;;;;;;;;;5093097;28;20077;-83
2022/07/30 08:44:40;;;;;;;16.48;15.07;;;;;;;;;;5095617;28;20069;-82
2022/07/30 08:47:08;;;;;;;21.63;18.60;;;;;;;;;;5095674;28;20027;-82
2022/07/30 08:49:34;;;;;;;15.93;14.40;;;;;;;;;;5095489;28;20023;-82
2022/07/30 08:52:01;;;;;;;9.52;8.60;;;;;;;;;;5095551;28;20104;-83
2022/07/30 08:54:27;;;;;;;10.50;9.45;;;;;;;;;;5095440;28;20028;-83
2022/07/30 08:56:54;;;;;;;10.18;9.35;;;;;;;;;;5095620;28;20027;-85
2022/07/30 08:59:23;;;;;;;17.25;15.82;;;;;;;;;;5077093;28;20089;-84
2022/07/30 09:01:50;;;;;;;14.85;13.57;;;;;;;;;;5095642;28;20475;-85
2022/07/30 09:04:16;;;;;;;11.73;10.82;;;;;;;;;;5077060;28;20077;-82
2022/07/30 09:06:43;;;;;;;10.32;9.23;;;;;;;;;;5095242;28;20070;-83
2022/07/30 09:09:09;;;;;;;9.60;8.80;;;;;;;;;;5095323;28;20020;-81
2022/07/30 09:11:35;;;;;;;10.27;9.27;;;;;;;;;;5095286;28;20028;-82
2022/07/30 09:14:11;;;;;;;10.23;9.30;;;;;;;;;;5077228;28;20524;-86
2022/07/30 09:16:39;;;;;;;10.25;9.35;;;;;;;;;;5076998;28;20118;-84
2022/07/30 09:19:24;;;;;;;11.00;9.90;;;;;;;;;;5076434;28;20060;-84
2022/07/30 09:21:59;;;;;;;10.68;9.85;;;;;;;;;;5094939;28;20103;-84
2022/07/30 09:24:26;;;;;;;9.77;8.98;;;;;;;;;;5094913;28;20090;-81
2022/07/30 09:27:05;;;;;;;10.27;9.27;;;;;;;;;;5094846;28;20034;-84
2022/07/30 09:29:31;;;;;;;10.95;9.90;;;;;;;;;;5095046;28;20021;-86
2022/07/30 09:32:02;;;;;;;10.40;9.50;;;;;;;;;;5076980;28;20073;-85
2022/07/30 09:34:32;;;;;;;10.23;9.25;;;;;;;;;;5094925;28;20034;-86
2022/07/30 09:37:19;;;;;;;10.50;9.55;;;;;;;;;;5094743;28;20078;-83
2022/07/30 09:39:45;;;;;;;9.18;8.48;;;;;;;;;;5094660;28;20103;-84
2022/07/30 09:42:17;;;;;;;9.82;9.05;;;;;;;;;;5094801;28;20475;-82
2022/07/30 09:44:43;;;;;;;9.90;9.00;;;;;;;;;;5094526;28;20077;-82
2022/07/30 09:47:09;;;;;;;9.05;8.23;;;;;;;;;;5094458;28;20024;-82
2022/07/30 09:49:36;;;;;;;10.82;9.70;;;;;;;;;;5094380;28;20081;-82
2022/07/30 09:52:02;;;;;;;9.05;8.25;;;;;;;;;;5094147;28;20068;-82
2022/07/30 09:54:49;;;;;;;9.55;8.82;;;;;;;;;;5093708;28;20470;-83
2022/07/30 09:57:15;;;;;;;11.90;10.70;;;;;;;;;;5094116;28;20024;-83
2022/07/30 09:59:41;;;;;;;12.02;10.85;;;;;;;;;;5094321;28;20028;-82
2022/07/30 10:02:07;;;;;;;9.55;8.60;;;;;;;;;;5094142;28;20020;-83
2022/07/30 10:04:33;;;;;;;9.60;8.70;;;;;;;;;;5094088;28;20027;-83
2022/07/30 10:07:00;;;;;;;10.65;9.75;;;;;;;;;;5094280;28;20021;-82
2022/07/30 10:09:30;;;;;;;10.30;9.38;;;;;;;;;;5094014;28;20047;-83
2022/07/30 10:11:57;;;;;;;9.52;8.57;;;;;;;;;;5094109;28;20027;-84
2022/07/30 10:14:25;;;;;;;9.90;8.90;;;;;;;;;;5093834;28;20494;-82
2022/07/30 10:16:51;;;;;;;8.93;8.05;;;;;;;;;;5093955;28;20032;-83
2022/07/30 10:19:17;;;;;;;10.10;9.20;;;;;;;;;;5093805;28;20050;-84
2022/07/30 10:21:46;;;;;;;9.07;8.35;;;;;;;;;;5093827;28;20052;-82
2022/07/30 10:24:15;;;;;;;9.77;8.85;;;;;;;;;;5075100;28;20032;-83
2022/07/30 10:26:41;;;;;;;10.07;9.18;;;;;;;;;;5093625;28;20028;-84
2022/07/30 10:29:07;;;;;;;9.15;8.35;;;;;;;;;;5093534;28;20024;-83
2022/07/30 10:31:33;;;;;;;8.80;7.93;;;;;;;;;;5075373;28;20028;-83
2022/07/30 10:33:59;;;;;;;8.48;7.82;;;;;;;;;;5093484;28;20028;-83
2022/07/30 10:36:26;;;;;;;9.70;8.90;;;;;;;;;;5093312;28;20101;-83
2022/07/30 10:38:53;;;;;;;9.10;8.30;;;;;;;;;;5093552;28;20522;-82
2022/07/30 10:41:38;;;;;;;9.10;8.30;;;;;;;;;;5093259;28;20026;-82
2022/07/30 10:44:07;;;;;;;9.20;8.48;;;;;;;;;;5093217;28;20035;-83
2022/07/30 10:46:36;;;;;;;9.90;8.85;;;;;;;;;;5093469;28;20026;-83
2022/07/30 10:49:13;;;;;;;10.20;9.23;;;;;;;;;;5093183;28;20025;-82
2022/07/30 10:51:58;;;;;;;10.07;9.10;;;;;;;;;;5075022;28;20037;-82
2022/07/30 10:54:33;;;;;;;9.10;8.30;;;;;;;;;;5093182;28;20471;-83
2022/07/30 10:57:04;;;;;;;9.35;8.65;;;;;;;;;;5093305;28;20028;-83
2022/07/30 10:59:51;;;;;;;8.75;7.95;;;;;;;;;;5092908;28;20042;-84
2022/07/30 11:02:18;;;;;;;8.38;7.57;;;;;;;;;;5092974;28;20031;-84
2022/07/30 11:04:44;;;;;;;8.00;7.38;;;;;;;;;;5092326;28;20059;-84
2022/07/30 11:07:30;;;;;;;8.70;7.97;;;;;;;;;;5093030;28;20375;-83
2022/07/30 11:09:59;;;;;;;9.70;8.85;;;;;;;;;;5092786;28;20024;-83
2022/07/30 11:12:44;;;;;;;9.43;8.60;;;;;;;;;;5092972;28;20023;-82
2022/07/30 11:15:14;;;;;;;9.40;8.65;;;;;;;;;;5092995;28;20031;-82
2022/07/30 11:17:59;;;;;;;9.77;8.88;;;;;;;;;;5092687;28;20486;-83
2022/07/30 11:20:26;;;;;;;9.93;9.15;;;;;;;;;;5074482;28;20035;-83
2022/07/30 11:22:52;;;;;;;9.60;8.80;;;;;;;;;;5092589;28;20028;-82
2022/07/30 11:25:22;;;;;;;12.02;10.18;;;;;;;;;;5074519;28;20069;-84
2022/07/30 11:27:52;;;;;;;10.02;9.23;;;;;;;;;;5092478;28;20084;-85
2022/07/30 11:30:18;;;;;;;9.68;8.75;;;;;;;;;;5092454;28;20020;-84
2022/07/30 11:32:54;;;;;;;9.57;8.80;;;;;;;;;;5074481;28;20510;-83
2022/07/30 11:35:24;;;;;;;9.15;8.35;;;;;;;;;;5092184;28;20133;-83
2022/07/30 11:37:54;;;;;;;9.60;8.70;;;;;;;;;;5092515;28;20083;-82
2022/07/30 11:40:21;;;;;;;8.80;8.10;;;;;;;;;;5092556;28;20475;-84
2022/07/30 11:42:48;;;;;;;13.00;10.13;;;;;;;;;;5092485;28;20027;-85
2022/07/30 11:45:17;;;;;;;10.50;9.50;;;;;;;;;;5092406;28;20020;-83
2022/07/30 11:47:43;;;;;;;10.75;9.93;;;;;;;;;;5092579;28;20016;-84
2022/07/30 11:50:28;;;;;;;10.60;9.68;;;;;;;;;;5092322;28;20020;-83
2022/07/30 11:52:55;;;;;;;9.40;8.50;;;;;;;;;;5092358;28;20386;-84
2022/07/30 11:55:23;;;;;;;10.95;9.88;;;;;;;;;;5092622;28;20024;-85
2022/07/30 11:57:49;;;;;;;10.95;10.02;;;;;;;;;;5074151;28;20026;-82
2022/07/30 12:00:17;;;;;;;11.60;10.60;;;;;;;;;;5074387;28;20115;-85
2022/07/30 12:02:43;;;;;;;9.27;8.48;;;;;;;;;;5092326;28;20016;-84
2022/07/30 12:05:12;;;;;;;9.30;8.45;;;;;;;;;;5092356;28;20020;-85
2022/07/30 12:07:38;;;;;;;10.23;9.40;;;;;;;;;;5074258;28;20036;-84
2022/07/30 12:10:13;;;;;;;9.98;9.13;;;;;;;;;;5092246;28;20027;-84
2022/07/30 12:12:39;;;;;;;9.90;9.00;;;;;;;;;;5074100;28;20024;-84
2022/07/30 12:15:06;;;;;;;9.32;8.63;;;;;;;;;;5092306;28;20020;-83
2022/07/30 12:17:45;;;;;;;9.02;8.35;;;;;;;;;;5077522;28;20024;-83
2022/07/30 12:20:16;;;;;;;8.88;8.20;;;;;;;;;;5096290;28;20142;-85
2022/07/30 12:22:42;;;;;;;9.52;8.73;;;;;;;;;;5096034;28;20098;-83
2022/07/30 12:25:08;;;;;;;10.35;9.55;;;;;;;;;;5096179;28;20023;-82
2022/07/30 12:27:35;;;;;;;9.85;8.95;;;;;;;;;;5095804;28;20087;-84
2022/07/30 12:30:02;;;;;;;10.55;9.60;;;;;;;;;;5096024;28;20036;-83
2022/07/30 12:32:30;;;;;;;10.27;9.38;;;;;;;;;;5095932;28;20016;-82
2022/07/30 12:34:56;;;;;;;10.05;9.15;;;;;;;;;;5095631;28;20031;-82
2022/07/30 12:37:22;;;;;;;9.18;8.48;;;;;;;;;;5095854;28;20032;-84
2022/07/30 12:39:49;;;;;;;10.98;10.07;;;;;;;;;;5095672;28;20043;-82
2022/07/30 12:42:18;;;;;;;9.38;8.45;;;;;;;;;;5077208;28;20040;-82
2022/07/30 12:44:45;;;;;;;9.32;8.35;;;;;;;;;;5094884;28;20020;-71
2022/07/30 12:47:24;;;;;;;10.20;9.40;;;;;;;;;;5095507;28;20024;-83
2022/07/30 12:49:51;;;;;;;9.70;8.80;;;;;;;;;;5095557;28;20127;-83
2022/07/30 12:52:36;;;;;;;9.93;9.23;;;;;;;;;;5095489;28;20016;-81
2022/07/30 12:55:02;;;;;;;8.98;8.13;;;;;;;;;;5095516;28;20107;-84
2022/07/30 12:57:49;;;;;;;8.38;7.78;;;;;;;;;;5095373;28;20020;-83
2022/07/30 13:00:15;;;;;;;9.13;8.20;;;;;;;;;;5095379;28;20479;-82
2022/07/30 13:02:41;;;;;;;10.68;9.77;;;;;;;;;;5095368;28;20024;-83
2022/07/30 13:05:07;;;;;;;9.48;8.68;;;;;;;;;;5095076;28;20024;-82
2022/07/30 13:07:35;;;;;;;8.80;8.00;;;;;;;;;;5095150;28;20024;-82
2022/07/30 13:10:08;;;;;;;9.60;8.68;;;;;;;;;;5094925;28;20061;-82
2022/07/30 13:12:34;;;;;;;12.85;9.27;;;;;;;;;;5095223;28;20031;-82
2022/07/30 13:15:00;;;;;;;9.65;8.73;;;;;;;;;;5094968;28;20368;-82
2022/07/30 13:17:27;;;;;;;9.50;8.70;;;;;;;;;;5095037;28;20035;-81
2022/07/30 13:19:53;;;;;;;9.90;9.18;;;;;;;;;;5094848;28;20031;-82
2022/07/30 13:22:21;;;;;;;8.60;7.95;;;;;;;;;;5095040;28;20024;-82
2022/07/30 13:24:47;;;;;;;9.93;9.13;;;;;;;;;;5094837;28;20119;-82
2022/07/30 13:27:15;;;;;;;10.75;9.65;;;;;;;;;;5085848;28;20023;-83
2022/07/30 13:29:41;;;;;;;9.95;8.95;;;;;;;;;;5074463;28;20127;-82
2022/07/30 13:32:08;;;;;;;9.20;8.50;;;;;;;;;;5074303;28;20025;-84
2022/07/30 13:34:34;;;;;;;9.27;8.57;;;;;;;;;;5074549;28;20029;-82
2022/07/30 13:37:00;;;;;;;11.60;8.85;;;;;;;;;;5096622;28;20043;-82
2022/07/30 13:39:27;;;;;;;10.55;9.50;;;;;;;;;;5094233;28;20061;-83
2022/07/30 13:41:53;;;;;;;8.57;7.95;;;;;;;;;;5114992;28;20023;-84
2022/07/30 13:44:19;;;;;;;9.77;8.90;;;;;;;;;;5106849;28;20485;-84
2022/07/30 13:46:45;;;;;;;9.18;8.38;;;;;;;;;;5114909;28;20045;-82
2022/07/30 13:49:12;;;;;;;9.65;8.60;;;;;;;;;;5114759;28;20055;-82
2022/07/30 13:51:39;;;;;;;9.07;8.27;;;;;;;;;;5114868;28;20069;-83
2022/07/30 13:54:06;;;;;;;10.25;9.40;;;;;;;;;;5114677;28;20064;-82
2022/07/30 13:56:32;;;;;;;9.43;8.52;;;;;;;;;;5114818;28;20360;-82
2022/07/30 13:58:59;;;;;;;10.15;9.20;;;;;;;;;;5114565;28;20103;-82
2022/07/30 14:01:25;;;;;;;9.80;8.90;;;;;;;;;;5096453;28;20069;-82
2022/07/30 14:03:51;;;;;;;9.10;8.40;;;;;;;;;;5114731;28;20406;-81
2022/07/30 14:06:18;;;;;;;9.18;8.48;;;;;;;;;;5114301;28;20015;-80
2022/07/30 14:08:44;;;;;;;8.30;7.63;;;;;;;;;;5114532;28;20026;-78
2022/07/30 14:11:10;;;;;;;9.00;8.20;;;;;;;;;;5114045;28;20019;-79
2022/07/30 14:13:37;;;;;;;8.40;7.60;;;;;;;;;;5114217;28;20031;-81
2022/07/30 14:16:03;;;;;;;8.15;7.53;;;;;;;;;;5113849;28;20032;-79
2022/07/30 14:21:18;;;;;;;14.65;13.55;;;;;;;;;;5114012;28;20058;-81
2022/07/30 14:23:47;;;;;;;9.38;8.65;;;;;;;;;;5113989;28;20432;-81
2022/07/30 14:26:13;;;;;;;8.65;7.90;;;;;;;;;;5113952;28;20019;-81
2022/07/30 14:28:42;;;;;;;9.02;8.23;;;;;;;;;;5113906;28;20019;-81
2022/07/30 14:31:11;;;;;;;9.30;8.60;;;;;;;;;;5113791;28;20382;-81
2022/07/30 14:33:37;;;;;;;9.60;8.75;;;;;;;;;;5113737;28;20027;-81